Metar z pełnej godziny Komunikat METAR ze strony awiacja.imgw.pl Metar G00 EPKK METAR EPKK 070000Z 24009KT 9999 SCT008 BKN017 02/01 Q1011 =